Air Resources Laboratory banner image
Air Resources Laboratory web site National Oceanic and Atmospheric Administration (NOAA)

ma metar


KACK 111453Z 27010G15KT 10SM OVC035 04/00 A3000 RMK AO2 SLP158 T00440000 50005=
KAQW 111452Z AUTO 25006KT 10SM OVC034 M01/M07 A2995 RMK AO2 SLP152 T10061067
 53012=
KBAF 111453Z 27003KT 10SM CLR 01/M06 A2997 RMK AO2 SLP156 T00111061 53008=
KBED 111456Z 24006KT 10SM OVC090 00/M05 A2997 RMK AO2 SLP165 T00001050 53008=
KBOS 111454Z 24011KT 10SM BKN095 01/M05 A2998 RMK AO2 SLP153 T00111050 51009=
KBVY 111453Z 24008KT 10SM OVC090 01/M04 A2996 RMK AO2 SLP144 T00061044 51007=
KCEF 111456Z 00000KT 10SM FEW060 01/M05 A2997 RMK AO2A SLP157 T00051055 53006=
KCQX 111452Z AUTO VRB04KT 10SM BKN047 OVC060 03/M04 A3000 RMK AO2 SLP161
 T00331044 50004=
KEWB 111453Z 26010KT 10SM FEW095 02/M03 A2999 RMK AO2 SLP156 T00221033 50004 $=
KFIT 111452Z AUTO 27009KT 10SM CLR 02/M04 A2997 RMK AO2 SLP152 T00171044 53010=
KFMH 111455Z 27012KT 10SM SCT040 BKN055 03/M04 A3000 RMK AO2=
KHYA 111456Z 25009KT 10SM BKN049 BKN090 03/M04 A2998 RMK AO2 SLP153 T00331044
 50002=
KLWM 111454Z 20006KT 10SM BKN090 01/M04 A2998 RMK AO2 SLP154 T00111044 51008=
KMQE 111456Z AUTO 24007KT 00/M05 A2995 RMK AO1 SLP158 T00001050 51008=
KMVY 111453Z 31008KT 10SM SCT043 OVC055 03/M01 A2999 RMK AO2 SNB02E18 SLPNO
 P0000 60000 T00281011 50001 $=
KORE 111452Z AUTO 25008KT 10SM BKN042 00/M06 A2996 RMK AO2 SLP153 T00001056
 53010 TSNO=
KORH 111454Z 24008KT 10SM CLR M02/M07 A2994 RMK AO2 SLP154 T10171067 53012=
KOWD 111453Z VRB06KT 10SM OVC090 02/M04 A2999 RMK AO2 SLP156 T00171039 51009=
KPSF 111454Z AUTO 24007KT 10SM OVC031 M02/M07 A2992 RMK AO2 SLP144 T10171072
 51011=
KPVC 111456Z AUTO 26016G21KT 10SM BKN100 03/M04 A2999 RMK AO2 SLP154 6////
 T00331039=
KPYM 111452Z AUTO 26011KT 10SM FEW075 OVC100 02/M04 A2999 RMK AO2 SLP156
 T00221044 50004=
KTAN 111452Z AUTO 25008KT 10SM SCT070 BKN080 OVC100 02/M04 A2999 RMK AO2 SLP157
 T00171044 51007=